createdAt,value
2023-05-25T00:01:01.323Z,102078.81
2023-05-25T00:03:32.667Z,102076.75
2023-05-25T00:06:02.024Z,102070.31
2023-05-25T00:08:30.332Z,102075.91
2023-05-25T00:10:58.397Z,102078.81
2023-05-25T00:13:26.679Z,102074.72
2023-05-25T00:15:54.830Z,102070.75
2023-05-25T00:18:22.936Z,102079.78
2023-05-25T00:20:54.174Z,102082.59
2023-05-25T00:23:22.245Z,102074.50
2023-05-25T00:25:50.422Z,102071.28
2023-05-25T00:28:18.381Z,102085.38
2023-05-25T00:30:46.389Z,102071.25
2023-05-25T00:33:14.471Z,102072.88
2023-05-25T00:35:43.548Z,102078.34
2023-05-25T00:38:15.398Z,102073.06
2023-05-25T00:40:43.353Z,102069.88
2023-05-25T00:43:12.115Z,102070.63
2023-05-25T00:45:40.677Z,102072.88
2023-05-25T00:48:11.085Z,102070.50
2023-05-25T00:50:40.781Z,102074.59
2023-05-25T00:53:10.057Z,102067.47
2023-05-25T00:55:42.963Z,102069.88
2023-05-25T00:58:12.464Z,102076.03
2023-05-25T01:00:43.715Z,102079.50
2023-05-25T01:03:18.014Z,102062.44
2023-05-25T01:05:50.117Z,102068.59
2023-05-25T01:08:21.203Z,102062.34
2023-05-25T01:10:53.973Z,102061.38
2023-05-25T01:13:22.672Z,102059.34
2023-05-25T01:15:52.351Z,102064.84
2023-05-25T01:18:20.266Z,102075.28
2023-05-25T01:20:58.531Z,102078.19
2023-05-25T01:23:34.101Z,102075.84
2023-05-25T01:26:06.537Z,102076.91
2023-05-25T01:28:41.109Z,102080.00
2023-05-25T01:31:10.549Z,102075.94
2023-05-25T01:33:39.587Z,102077.00
2023-05-25T01:36:08.977Z,102079.38
2023-05-25T01:38:38.163Z,102079.59
2023-05-25T01:41:06.108Z,102083.03
2023-05-25T01:43:34.002Z,102081.50
2023-05-25T01:46:13.171Z,102086.03
2023-05-25T01:48:48.796Z,102086.34
2023-05-25T01:51:26.858Z,102079.81
2023-05-25T01:53:59.412Z,102084.09
2023-05-25T01:56:31.961Z,102075.94
2023-05-25T01:59:02.553Z,102076.03
2023-05-25T02:01:33.338Z,102074.53
2023-05-25T02:04:02.107Z,102078.06
2023-05-25T02:06:31.926Z,102075.72
2023-05-25T02:09:07.007Z,102076.69
2023-05-25T02:11:34.967Z,102073.28
2023-05-25T02:14:02.898Z,102075.84
2023-05-25T02:16:31.030Z,102065.44
2023-05-25T02:19:01.218Z,102072.88
2023-05-25T02:21:29.230Z,102077.97
2023-05-25T02:23:59.077Z,102078.09
2023-05-25T02:26:27.357Z,102088.53
2023-05-25T02:28:55.310Z,102078.09
2023-05-25T02:31:23.215Z,102094.19
2023-05-25T02:33:51.144Z,102085.56
2023-05-25T02:36:21.170Z,102096.06
2023-05-25T02:38:49.948Z,102089.56
2023-05-25T02:41:21.450Z,102098.16
2023-05-25T02:43:49.376Z,102090.88
2023-05-25T02:46:17.349Z,102086.88
2023-05-25T02:48:45.431Z,102090.66
2023-05-25T02:51:13.446Z,102094.94
2023-05-25T02:53:41.725Z,102085.06
2023-05-25T02:56:11.275Z,102089.22
2023-05-25T02:58:40.860Z,102091.47
2023-05-25T03:01:18.625Z,102096.22
2023-05-25T03:03:53.099Z,102096.63
2023-05-25T03:06:26.037Z,102091.19
2023-05-25T03:08:58.507Z,102093.06
2023-05-25T03:11:26.874Z,102098.75
2023-05-25T03:13:58.815Z,102099.97
2023-05-25T03:16:28.727Z,102096.31
2023-05-25T03:18:56.672Z,102096.22
2023-05-25T03:21:24.606Z,102096.94
2023-05-25T03:23:52.510Z,102104.28
2023-05-25T03:26:20.386Z,102106.63
2023-05-25T03:28:50.848Z,102102.50
2023-05-25T03:31:20.220Z,102112.47
2023-05-25T03:33:48.541Z,102115.06
2023-05-25T03:36:17.893Z,102117.09
2023-05-25T03:38:46.309Z,102113.41
2023-05-25T03:41:14.231Z,102108.88
2023-05-25T03:43:42.084Z,102105.25
2023-05-25T03:46:11.660Z,102104.81
2023-05-25T03:48:41.281Z,102109.31
2023-05-25T03:51:09.659Z,102114.94
2023-05-25T03:53:37.661Z,102110.50
2023-05-25T03:56:06.064Z,102116.66
2023-05-25T03:58:34.208Z,102119.97
2023-05-25T04:01:04.366Z,102123.66
2023-05-25T04:03:33.748Z,102121.22
2023-05-25T04:06:03.323Z,102125.44
2023-05-25T04:08:31.201Z,102131.63
2023-05-25T04:10:59.188Z,102125.84
2023-05-25T04:13:29.445Z,102129.13
2023-05-25T04:15:57.449Z,102128.41
2023-05-25T04:18:30.562Z,102134.97
2023-05-25T04:21:01.283Z,102139.72
2023-05-25T04:23:31.196Z,102137.50
2023-05-25T04:25:59.934Z,102133.94
2023-05-25T04:28:28.325Z,102141.41
2023-05-25T04:31:14.032Z,102136.59
2023-05-25T04:33:50.860Z,102144.44
2023-05-25T04:36:26.779Z,102150.66
2023-05-25T04:38:56.485Z,102148.66
2023-05-25T04:41:26.207Z,102154.59
2023-05-25T04:44:09.035Z,102146.78
2023-05-25T04:46:40.834Z,102150.53
2023-05-25T04:49:16.817Z,102152.94
2023-05-25T04:51:44.774Z,102151.31
2023-05-25T04:54:14.053Z,102137.53
2023-05-25T04:56:41.967Z,102148.44
2023-05-25T04:59:11.054Z,102150.13
2023-05-25T05:01:41.106Z,102145.22
2023-05-25T05:04:11.486Z,102138.88
2023-05-25T05:06:40.777Z,102133.78
2023-05-25T05:09:10.050Z,102134.00
2023-05-25T05:11:39.371Z,102137.03
2023-05-25T05:14:08.180Z,102132.53
2023-05-25T05:16:37.467Z,102131.13
2023-05-25T05:19:05.735Z,102140.59
2023-05-25T05:21:33.690Z,102142.44
2023-05-25T05:24:04.795Z,102151.69
2023-05-25T05:26:41.265Z,102143.03
2023-05-25T05:29:19.898Z,102156.59
2023-05-25T05:31:48.331Z,102145.78
2023-05-25T05:34:16.718Z,102149.28
2023-05-25T05:36:56.531Z,102161.16
2023-05-25T05:39:25.357Z,102147.72
2023-05-25T05:41:53.248Z,102152.19
2023-05-25T05:44:25.996Z,102160.91
2023-05-25T05:46:59.992Z,102157.13
2023-05-25T05:49:29.178Z,102157.38
2023-05-25T05:51:57.568Z,102146.50
2023-05-25T05:54:27.771Z,102151.69
2023-05-25T05:56:56.176Z,102147.13
2023-05-25T05:59:25.536Z,102158.19
2023-05-25T06:01:53.665Z,102159.25
2023-05-25T06:04:25.287Z,102158.06
2023-05-25T06:06:53.277Z,102159.03
2023-05-25T06:09:21.373Z,102163.66
2023-05-25T06:11:49.289Z,102165.19
2023-05-25T06:14:18.445Z,102155.34
2023-05-25T06:16:47.773Z,102161.00
2023-05-25T06:19:15.779Z,102168.88
2023-05-25T06:21:43.660Z,102169.09
2023-05-25T06:24:11.542Z,102168.75
2023-05-25T06:26:39.568Z,102168.34
2023-05-25T06:29:07.576Z,102171.47
2023-05-25T06:31:36.440Z,102168.47
2023-05-25T06:34:05.865Z,102173.59
2023-05-25T06:36:33.758Z,102163.13
2023-05-25T06:39:01.670Z,102170.94
2023-05-25T06:41:30.772Z,102180.34
2023-05-25T06:43:58.763Z,102172.16
2023-05-25T06:46:33.030Z,102170.78
2023-05-25T06:49:01.201Z,102167.47
2023-05-25T06:51:31.206Z,102170.78
2023-05-25T06:53:59.465Z,102161.53
2023-05-25T06:56:27.972Z,102161.50
2023-05-25T06:58:55.925Z,102161.91
2023-05-25T07:01:23.884Z,102171.34
2023-05-25T07:03:51.806Z,102170.00
2023-05-25T07:06:19.675Z,102171.41
2023-05-25T07:08:48.915Z,102179.09
2023-05-25T07:11:20.637Z,102173.06
2023-05-25T07:13:48.526Z,102162.25
2023-05-25T07:16:16.626Z,102171.03
2023-05-25T07:18:44.569Z,102167.59
2023-05-25T07:21:12.463Z,102174.84
2023-05-25T07:23:41.112Z,102168.34
2023-05-25T07:26:10.637Z,102170.59
2023-05-25T07:28:38.524Z,102168.38
2023-05-25T07:31:06.485Z,102174.44
2023-05-25T07:33:34.391Z,102165.34
2023-05-25T07:36:02.248Z,102173.34
2023-05-25T07:38:30.117Z,102161.97
2023-05-25T07:40:58.020Z,102159.47
2023-05-25T07:43:29.644Z,102165.53
2023-05-25T07:45:57.728Z,102184.97
2023-05-25T07:48:25.674Z,102179.63
2023-05-25T07:50:53.619Z,102181.88
2023-05-25T07:53:21.571Z,102179.34
2023-05-25T07:55:49.548Z,102172.44
2023-05-25T07:58:17.651Z,102175.22
2023-05-25T08:00:46.884Z,102175.97
2023-05-25T08:03:14.881Z,102171.72
2023-05-25T08:05:44.251Z,102187.41
2023-05-25T08:08:12.462Z,102168.28
2023-05-25T08:10:40.563Z,102173.78
2023-05-25T08:13:08.544Z,102187.72
2023-05-25T08:15:36.497Z,102181.16
2023-05-25T08:18:06.661Z,102176.47
2023-05-25T08:20:34.940Z,102176.34
2023-05-25T08:23:02.883Z,102170.94
2023-05-25T08:25:30.764Z,102161.34
2023-05-25T08:27:58.656Z,102169.69
2023-05-25T08:30:26.556Z,102172.81
2023-05-25T08:32:54.609Z,102168.88
2023-05-25T08:35:23.925Z,102163.94
2023-05-25T08:37:52.090Z,102183.50
2023-05-25T08:40:23.718Z,102185.47
2023-05-25T08:42:51.892Z,102172.59
2023-05-25T08:45:33.696Z,102166.13
2023-05-25T08:48:05.085Z,102158.00
2023-05-25T08:50:35.323Z,102177.56
2023-05-25T08:53:06.357Z,102175.81
2023-05-25T08:55:38.757Z,102165.13
2023-05-25T08:58:14.863Z,102180.53
2023-05-25T09:00:50.377Z,102178.56
2023-05-25T09:03:19.023Z,102173.00
2023-05-25T09:05:48.678Z,102169.13
2023-05-25T09:08:18.008Z,102175.00
2023-05-25T09:10:46.019Z,102161.09
2023-05-25T09:13:22.115Z,102156.97
2023-05-25T09:15:52.098Z,102159.19
2023-05-25T09:18:20.373Z,102175.25
2023-05-25T09:20:50.038Z,102171.72
2023-05-25T09:23:18.450Z,102175.00
2023-05-25T09:25:47.541Z,102157.47
2023-05-25T09:30:46.473Z,102167.06
2023-05-25T09:33:17.589Z,102174.06
2023-05-25T09:35:45.901Z,102181.63
2023-05-25T09:38:16.582Z,102170.50
2023-05-25T09:40:45.349Z,102157.06
2023-05-25T09:43:21.947Z,102165.94
2023-05-25T09:45:53.636Z,102191.44
2023-05-25T09:48:23.080Z,102192.19
2023-05-25T09:50:52.209Z,102196.59
2023-05-25T09:53:21.793Z,102191.03
2023-05-25T09:55:53.297Z,102192.56
2023-05-25T09:58:24.770Z,102181.66
2023-05-25T10:00:55.767Z,102181.50
2023-05-25T10:03:23.854Z,102179.88
2023-05-25T10:05:53.409Z,102176.47
2023-05-25T10:08:27.879Z,102177.41
2023-05-25T10:10:56.894Z,102180.19
2023-05-25T10:13:28.214Z,102169.34
2023-05-25T10:15:57.357Z,102177.28
2023-05-25T10:18:29.151Z,102182.06
2023-05-25T10:21:04.394Z,102180.72
2023-05-25T10:23:40.247Z,102177.09
2023-05-25T10:26:09.468Z,102182.97
2023-05-25T10:28:40.629Z,102188.19
2023-05-25T10:31:10.586Z,102194.19
2023-05-25T10:33:38.824Z,102194.72
2023-05-25T10:36:11.305Z,102196.78
2023-05-25T10:38:44.620Z,102204.13
2023-05-25T10:41:12.905Z,102193.00
2023-05-25T10:43:41.695Z,102171.72
2023-05-25T10:46:09.768Z,102176.88
2023-05-25T10:48:38.619Z,102176.56
2023-05-25T10:51:08.335Z,102177.34
2023-05-25T10:53:38.047Z,102185.59
2023-05-25T10:56:10.602Z,102187.13
2023-05-25T10:58:42.942Z,102182.09
2023-05-25T11:01:12.291Z,102185.81
2023-05-25T11:03:55.701Z,102184.59
2023-05-25T11:06:25.271Z,102190.78
2023-05-25T11:08:55.958Z,102192.63
2023-05-25T11:12:04.044Z,102183.13
2023-05-25T11:14:33.951Z,102190.94
2023-05-25T11:17:10.682Z,102188.72
2023-05-25T11:19:47.953Z,102186.34
2023-05-25T11:22:20.621Z,102191.50
2023-05-25T11:24:49.231Z,102188.94
2023-05-25T11:27:23.646Z,102201.91
2023-05-25T11:29:52.304Z,102201.28
2023-05-25T11:32:21.205Z,102202.75
2023-05-25T11:34:49.732Z,102193.56
2023-05-25T11:37:21.218Z,102198.06
2023-05-25T11:39:49.725Z,102191.50
2023-05-25T11:42:20.998Z,102190.81
2023-05-25T11:44:49.153Z,102181.38
2023-05-25T11:47:22.687Z,102187.84
2023-05-25T11:49:50.730Z,102193.03
2023-05-25T11:52:20.450Z,102188.75
2023-05-25T11:54:48.563Z,102189.22
2023-05-25T11:57:19.166Z,102186.53
2023-05-25T11:59:51.073Z,102193.47
2023-05-25T12:02:19.517Z,102192.34
2023-05-25T12:04:55.164Z,102183.28
2023-05-25T12:07:23.675Z,102180.75
2023-05-25T12:09:51.810Z,102189.31
2023-05-25T12:12:21.309Z,102188.31
2023-05-25T12:14:50.026Z,102192.88
2023-05-25T12:17:19.592Z,102193.38
2023-05-25T12:19:47.865Z,102186.84
2023-05-25T12:22:16.407Z,102197.66
2023-05-25T12:24:44.506Z,102202.13
2023-05-25T12:27:19.176Z,102206.63
2023-05-25T12:29:48.830Z,102211.53
2023-05-25T12:32:17.194Z,102205.56
2023-05-25T12:34:45.290Z,102207.00
2023-05-25T12:37:20.716Z,102208.19
2023-05-25T12:39:50.631Z,102203.91
2023-05-25T12:42:19.392Z,102197.78
2023-05-25T12:44:48.784Z,102184.09
2023-05-25T12:47:20.146Z,102183.72
2023-05-25T12:49:51.340Z,102188.72
2023-05-25T12:52:36.669Z,102194.88
2023-05-25T12:55:21.276Z,102187.00
2023-05-25T12:57:52.441Z,102186.50
2023-05-25T13:00:23.737Z,102189.09
2023-05-25T13:02:52.486Z,102185.28
2023-05-25T13:05:25.112Z,102188.25
2023-05-25T13:07:54.850Z,102182.84
2023-05-25T13:10:23.274Z,102174.19
2023-05-25T13:12:52.075Z,102169.22
2023-05-25T13:15:22.106Z,102163.75
2023-05-25T13:17:51.631Z,102169.72
2023-05-25T13:20:21.320Z,102172.38
2023-05-25T13:22:50.643Z,102165.31
2023-05-25T13:25:19.457Z,102163.44
2023-05-25T13:27:49.542Z,102164.69
2023-05-25T13:30:18.006Z,102165.03
2023-05-25T13:32:49.508Z,102165.16
2023-05-25T13:35:34.005Z,102157.03
2023-05-25T13:38:01.992Z,102168.31
2023-05-25T13:40:30.061Z,102176.06
2023-05-25T13:42:58.055Z,102172.69
2023-05-25T13:45:26.529Z,102164.38
2023-05-25T13:47:56.121Z,102161.72
2023-05-25T13:50:24.123Z,102160.53
2023-05-25T13:52:52.200Z,102163.41
2023-05-25T13:55:20.156Z,102169.50
2023-05-25T13:57:48.039Z,102160.25
2023-05-25T14:00:16.481Z,102147.59
2023-05-25T14:02:44.407Z,102146.31
2023-05-25T14:05:13.718Z,102140.31
2023-05-25T14:07:42.070Z,102143.94
2023-05-25T14:10:10.897Z,102145.97
2023-05-25T14:12:38.842Z,102143.88
2023-05-25T14:15:07.886Z,102146.69
2023-05-25T14:17:36.037Z,102143.06
2023-05-25T14:20:04.649Z,102142.47
2023-05-25T14:22:34.161Z,102136.16
2023-05-25T14:25:02.039Z,102137.03
2023-05-25T14:27:30.044Z,102143.97
2023-05-25T14:29:57.988Z,102144.81
2023-05-25T14:32:26.035Z,102133.09
2023-05-25T14:34:53.992Z,102139.31
2023-05-25T14:37:21.914Z,102139.47
2023-05-25T14:39:51.213Z,102135.41
2023-05-25T14:42:19.162Z,102134.22
2023-05-25T14:44:47.136Z,102129.41
2023-05-25T14:47:15.064Z,102133.75
2023-05-25T14:49:43.705Z,102131.66
2023-05-25T14:52:11.695Z,102139.38
2023-05-25T14:54:44.622Z,102141.91
2023-05-25T14:57:16.204Z,102136.34
2023-05-25T14:59:44.260Z,102134.47
2023-05-25T15:02:12.189Z,102139.47
2023-05-25T15:04:40.128Z,102126.50
2023-05-25T15:07:08.194Z,102127.00
2023-05-25T15:09:36.721Z,102121.03
2023-05-25T15:12:05.031Z,102122.63
2023-05-25T15:14:35.224Z,102123.53
2023-05-25T15:17:03.086Z,102125.66
2023-05-25T15:19:31.025Z,102129.72
2023-05-25T15:21:58.924Z,102127.81
2023-05-25T15:24:26.925Z,102107.78
2023-05-25T15:26:54.795Z,102113.91
2023-05-25T15:29:22.705Z,102123.97
2023-05-25T15:31:53.771Z,102123.72
2023-05-25T15:34:21.762Z,102121.94
2023-05-25T15:36:49.699Z,102124.97
2023-05-25T15:39:17.754Z,102115.13
2023-05-25T15:41:45.717Z,102128.72
2023-05-25T15:44:13.657Z,102134.72
2023-05-25T15:46:41.975Z,102120.97
2023-05-25T15:49:11.913Z,102121.56
2023-05-25T15:51:41.797Z,102119.31
2023-05-25T15:54:12.823Z,102120.94
2023-05-25T15:56:42.196Z,102131.28
2023-05-25T15:59:12.125Z,102117.69
2023-05-25T16:01:40.145Z,102133.00
2023-05-25T16:04:08.210Z,102122.28
2023-05-25T16:06:38.496Z,102119.13
2023-05-25T16:09:06.817Z,102111.81
2023-05-25T16:11:34.792Z,102114.03
2023-05-25T16:14:02.881Z,102117.63
2023-05-25T16:16:30.822Z,102108.56
2023-05-25T16:18:58.943Z,102115.78
2023-05-25T16:21:27.021Z,102113.00
2023-05-25T16:23:56.310Z,102108.44
2023-05-25T16:26:24.161Z,102119.25
2023-05-25T16:28:52.041Z,102112.31
2023-05-25T16:31:19.992Z,102105.03
2023-05-25T16:33:47.909Z,102102.63
2023-05-25T16:36:16.728Z,102105.59
2023-05-25T16:38:45.811Z,102109.53
2023-05-25T16:41:15.114Z,102110.16
2023-05-25T16:43:42.998Z,102106.81
2023-05-25T16:46:11.519Z,102109.63
2023-05-25T16:48:39.488Z,102106.13
2023-05-25T16:51:07.431Z,102104.41
2023-05-25T16:53:35.332Z,102111.88
2023-05-25T16:56:03.203Z,102099.50
2023-05-25T16:58:32.534Z,102103.44
2023-05-25T17:01:00.575Z,102101.84
2023-05-25T17:03:28.645Z,102103.03
2023-05-25T17:05:56.661Z,102098.50
2023-05-25T17:08:24.666Z,102103.91
2023-05-25T17:10:52.554Z,102100.34
2023-05-25T17:13:21.054Z,102103.78
2023-05-25T17:15:50.593Z,102094.34
2023-05-25T17:18:18.663Z,102106.53
2023-05-25T17:20:46.722Z,102103.63
2023-05-25T17:23:16.713Z,102104.41
2023-05-25T17:25:44.965Z,102109.78
2023-05-25T17:28:13.036Z,102107.72
2023-05-25T17:30:40.984Z,102109.09
2023-05-25T17:33:10.416Z,102102.03
2023-05-25T17:35:38.450Z,102101.88
2023-05-25T17:38:06.366Z,102108.53
2023-05-25T17:40:34.309Z,102112.81
2023-05-25T17:43:02.256Z,102114.22
2023-05-25T17:45:30.191Z,102112.88
2023-05-25T17:47:58.781Z,102118.47
2023-05-25T17:50:28.758Z,102114.91
2023-05-25T17:52:56.651Z,102123.34
2023-05-25T17:55:24.578Z,102121.81
2023-05-25T17:57:52.595Z,102125.16
2023-05-25T18:00:23.068Z,102120.66
2023-05-25T18:02:51.911Z,102128.19
2023-05-25T18:05:20.089Z,102126.00
2023-05-25T18:07:49.442Z,102130.50
2023-05-25T18:10:17.443Z,102128.22
2023-05-25T18:12:46.233Z,102133.97
2023-05-25T18:15:14.130Z,102133.09
2023-05-25T18:17:42.390Z,102134.19
2023-05-25T18:20:11.596Z,102139.41
2023-05-25T18:22:39.632Z,102137.81
2023-05-25T18:25:09.800Z,102132.81
2023-05-25T18:27:37.725Z,102143.13
2023-05-25T18:30:06.487Z,102140.28
2023-05-25T18:32:34.456Z,102150.28
2023-05-25T18:35:02.403Z,102143.28
2023-05-25T18:37:34.188Z,102154.00
2023-05-25T18:40:02.211Z,102139.84
2023-05-25T18:42:31.598Z,102153.59
2023-05-25T18:44:59.694Z,102150.13
2023-05-25T18:47:27.774Z,102144.59
2023-05-25T18:49:55.821Z,102145.97
2023-05-25T18:52:23.764Z,102148.72
2023-05-25T18:54:51.678Z,102157.56
2023-05-25T18:57:19.787Z,102156.25
2023-05-25T18:59:49.038Z,102158.94
2023-05-25T19:02:16.975Z,102157.97
2023-05-25T19:04:44.974Z,102159.69
2023-05-25T19:07:12.945Z,102168.50
2023-05-25T19:09:40.841Z,102162.53
2023-05-25T19:12:09.384Z,102163.94
2023-05-25T19:14:37.306Z,102172.53
2023-05-25T19:17:06.721Z,102166.53
2023-05-25T19:19:34.656Z,102165.13
2023-05-25T19:22:02.661Z,102172.53
2023-05-25T19:24:30.636Z,102172.25
2023-05-25T19:26:58.535Z,102173.53
2023-05-25T19:29:26.450Z,102174.25
2023-05-25T19:31:54.442Z,102180.31
2023-05-25T19:34:23.742Z,102182.06
2023-05-25T19:37:00.038Z,102179.22
2023-05-25T19:39:38.361Z,102175.97
2023-05-25T19:42:06.565Z,102172.78
2023-05-25T19:44:34.448Z,102185.97
2023-05-25T19:47:03.446Z,102171.66
2023-05-25T19:49:32.696Z,102173.63
2023-05-25T19:52:03.442Z,102177.03
2023-05-25T19:54:31.442Z,102180.06
2023-05-25T19:56:59.335Z,102184.34
2023-05-25T19:59:30.197Z,102187.97
2023-05-25T20:01:58.403Z,102192.63
2023-05-25T20:04:26.438Z,102193.81
2023-05-25T20:06:55.951Z,102192.34
2023-05-25T20:09:30.238Z,102195.00
2023-05-25T20:11:58.921Z,102196.28
2023-05-25T20:14:27.086Z,102204.81
2023-05-25T20:16:55.957Z,102207.56
2023-05-25T20:19:24.162Z,102207.94
2023-05-25T20:21:52.276Z,102208.88
2023-05-25T20:24:22.054Z,102208.34
2023-05-25T20:26:50.210Z,102212.81
2023-05-25T20:29:18.085Z,102209.97
2023-05-25T20:31:45.967Z,102207.00
2023-05-25T20:34:13.891Z,102212.22
2023-05-25T20:36:41.760Z,102214.75
2023-05-25T20:39:09.729Z,102216.75
2023-05-25T20:41:39.048Z,102215.50
2023-05-25T20:44:07.470Z,102212.44
2023-05-25T20:46:36.108Z,102221.97
2023-05-25T20:49:04.237Z,102211.06
2023-05-25T20:51:32.679Z,102219.06
2023-05-25T20:54:00.852Z,102214.50
2023-05-25T20:56:28.788Z,102201.63
2023-05-25T20:58:58.605Z,102212.72
2023-05-25T21:01:26.598Z,102211.88
2023-05-25T21:03:55.005Z,102209.84
2023-05-25T21:06:23.297Z,102206.16
2023-05-25T21:08:52.177Z,102220.19
2023-05-25T21:11:20.247Z,102217.50
2023-05-25T21:13:48.412Z,102222.00
2023-05-25T21:16:17.862Z,102221.28
2023-05-25T21:18:45.818Z,102214.81
2023-05-25T21:21:15.759Z,102215.97
2023-05-25T21:23:43.613Z,102220.22
2023-05-25T21:26:11.535Z,102224.31
2023-05-25T21:28:39.441Z,102230.63
2023-05-25T21:31:07.730Z,102235.00
2023-05-25T21:33:37.689Z,102230.38
2023-05-25T21:36:05.666Z,102232.34
2023-05-25T21:38:33.598Z,102236.41
2023-05-25T21:41:01.454Z,102236.13
2023-05-25T21:43:29.409Z,102231.72
2023-05-25T21:45:57.392Z,102229.22
2023-05-25T21:48:25.542Z,102234.34
2023-05-25T21:50:54.999Z,102238.06
2023-05-25T21:53:23.001Z,102240.13
2023-05-25T21:55:52.757Z,102241.97
2023-05-25T21:58:20.612Z,102249.44
2023-05-25T22:00:48.681Z,102243.16
2023-05-25T22:03:16.813Z,102255.09
2023-05-25T22:05:44.996Z,102249.81
2023-05-25T22:08:14.532Z,102251.53
2023-05-25T22:10:42.397Z,102251.84
2023-05-25T22:13:10.309Z,102258.59
2023-05-25T22:15:38.219Z,102255.41
2023-05-25T22:18:06.830Z,102259.69
2023-05-25T22:20:38.436Z,102266.81
2023-05-25T22:23:06.589Z,102264.38
2023-05-25T22:25:35.905Z,102269.34
2023-05-25T22:28:03.846Z,102264.53
2023-05-25T22:30:31.832Z,102272.81
2023-05-25T22:33:01.241Z,102275.75
2023-05-25T22:35:29.190Z,102274.25
2023-05-25T22:37:57.122Z,102265.41
2023-05-25T22:40:25.043Z,102284.72
2023-05-25T22:42:54.362Z,102277.81
2023-05-25T22:45:22.482Z,102271.31
2023-05-25T22:47:50.492Z,102274.50
2023-05-25T22:50:18.556Z,102278.69
2023-05-25T22:52:46.470Z,102283.44
2023-05-25T22:55:14.379Z,102280.22
2023-05-25T22:57:42.279Z,102286.22
2023-05-25T23:00:12.622Z,102286.72
2023-05-25T23:02:40.556Z,102284.03
2023-05-25T23:05:09.806Z,102285.09
2023-05-25T23:07:37.840Z,102285.72
2023-05-25T23:10:07.058Z,102294.91
2023-05-25T23:12:34.978Z,102294.94
2023-05-25T23:15:02.898Z,102287.91
2023-05-25T23:17:32.624Z,102293.72
2023-05-25T23:20:01.960Z,102287.53
2023-05-25T23:22:29.899Z,102290.47
2023-05-25T23:24:57.775Z,102292.25
2023-05-25T23:27:25.856Z,102296.56
2023-05-25T23:29:53.935Z,102287.91
2023-05-25T23:32:22.133Z,102281.00
2023-05-25T23:34:51.477Z,102290.38
2023-05-25T23:37:19.325Z,102280.72
2023-05-25T23:39:47.223Z,102276.19
2023-05-25T23:42:15.561Z,102284.22
2023-05-25T23:44:43.463Z,102280.78
2023-05-25T23:47:11.292Z,102283.88
2023-05-25T23:49:39.148Z,102289.69
2023-05-25T23:52:08.400Z,102293.44
2023-05-25T23:54:36.264Z,102288.09
2023-05-25T23:57:04.284Z,102287.22
2023-05-25T23:59:32.269Z,102287.72
